sensor_id;sensor_type;location;lat;lon;timestamp;temperature;humidity
32753;DHT22;19121;52.428;10.816;2023-02-28T00:00:03;19.40;38.00
32753;DHT22;19121;52.428;10.816;2023-02-28T00:02:39;19.40;37.80
32753;DHT22;19121;52.428;10.816;2023-02-28T00:05:05;19.40;37.80
32753;DHT22;19121;52.428;10.816;2023-02-28T00:07:31;19.30;37.70
32753;DHT22;19121;52.428;10.816;2023-02-28T00:09:57;19.40;37.80
32753;DHT22;19121;52.428;10.816;2023-02-28T00:12:22;19.30;37.80
32753;DHT22;19121;52.428;10.816;2023-02-28T00:14:48;19.30;37.80
32753;DHT22;19121;52.428;10.816;2023-02-28T00:17:14;19.30;37.80
32753;DHT22;19121;52.428;10.816;2023-02-28T00:19:39;19.30;37.70
32753;DHT22;19121;52.428;10.816;2023-02-28T00:22:05;19.30;37.70
32753;DHT22;19121;52.428;10.816;2023-02-28T00:24:30;19.30;37.70
32753;DHT22;19121;52.428;10.816;2023-02-28T00:26:56;19.30;37.80
32753;DHT22;19121;52.428;10.816;2023-02-28T00:29:21;19.30;37.80
32753;DHT22;19121;52.428;10.816;2023-02-28T00:31:47;19.30;37.70
32753;DHT22;19121;52.428;10.816;2023-02-28T00:34:12;19.30;37.70
32753;DHT22;19121;52.428;10.816;2023-02-28T00:36:37;19.30;37.70
32753;DHT22;19121;52.428;10.816;2023-02-28T00:39:03;19.30;37.80
32753;DHT22;19121;52.428;10.816;2023-02-28T00:41:29;19.30;37.70
32753;DHT22;19121;52.428;10.816;2023-02-28T00:43:54;19.30;37.70
32753;DHT22;19121;52.428;10.816;2023-02-28T00:46:19;19.30;37.70
32753;DHT22;19121;52.428;10.816;2023-02-28T00:48:45;19.30;37.70
32753;DHT22;19121;52.428;10.816;2023-02-28T00:51:10;19.30;37.70
32753;DHT22;19121;52.428;10.816;2023-02-28T00:53:36;19.30;37.70
32753;DHT22;19121;52.428;10.816;2023-02-28T00:56:01;19.30;37.70
32753;DHT22;19121;52.428;10.816;2023-02-28T00:58:27;19.30;37.70
32753;DHT22;19121;52.428;10.816;2023-02-28T01:00:52;19.30;37.70
32753;DHT22;19121;52.428;10.816;2023-02-28T01:03:19;19.20;37.70
32753;DHT22;19121;52.428;10.816;2023-02-28T01:05:45;19.30;37.80
32753;DHT22;19121;52.428;10.816;2023-02-28T01:08:11;19.20;37.60
32753;DHT22;19121;52.428;10.816;2023-02-28T01:10:36;19.20;37.70
32753;DHT22;19121;52.428;10.816;2023-02-28T01:13:03;19.20;37.70
32753;DHT22;19121;52.428;10.816;2023-02-28T01:15:29;19.20;37.70
32753;DHT22;19121;52.428;10.816;2023-02-28T01:17:54;19.20;37.60
32753;DHT22;19121;52.428;10.816;2023-02-28T01:20:19;19.30;37.60
32753;DHT22;19121;52.428;10.816;2023-02-28T01:22:45;19.20;37.60
32753;DHT22;19121;52.428;10.816;2023-02-28T01:25:12;19.20;37.60
32753;DHT22;19121;52.428;10.816;2023-02-28T01:27:37;19.20;37.60
32753;DHT22;19121;52.428;10.816;2023-02-28T01:30:07;19.20;37.60
32753;DHT22;19121;52.428;10.816;2023-02-28T01:32:32;19.20;37.50
32753;DHT22;19121;52.428;10.816;2023-02-28T01:34:58;19.20;37.60
32753;DHT22;19121;52.428;10.816;2023-02-28T01:37:23;19.20;37.60
32753;DHT22;19121;52.428;10.816;2023-02-28T01:39:49;19.30;37.60
32753;DHT22;19121;52.428;10.816;2023-02-28T01:42:14;19.20;37.60
32753;DHT22;19121;52.428;10.816;2023-02-28T01:45:00;19.20;37.60
32753;DHT22;19121;52.428;10.816;2023-02-28T01:47:27;19.20;37.60
32753;DHT22;19121;52.428;10.816;2023-02-28T01:49:53;19.20;37.60
32753;DHT22;19121;52.428;10.816;2023-02-28T01:52:18;19.20;37.60
32753;DHT22;19121;52.428;10.816;2023-02-28T01:54:47;19.20;37.50
32753;DHT22;19121;52.428;10.816;2023-02-28T01:57:17;19.20;37.50
32753;DHT22;19121;52.428;10.816;2023-02-28T01:59:45;19.20;37.50
32753;DHT22;19121;52.428;10.816;2023-02-28T02:02:16;19.20;37.50
32753;DHT22;19121;52.428;10.816;2023-02-28T02:04:46;19.20;37.50
32753;DHT22;19121;52.428;10.816;2023-02-28T02:07:15;19.20;37.50
32753;DHT22;19121;52.428;10.816;2023-02-28T02:09:41;19.20;37.50
32753;DHT22;19121;52.428;10.816;2023-02-28T02:12:13;19.20;37.50
32753;DHT22;19121;52.428;10.816;2023-02-28T02:17:24;19.20;37.50
32753;DHT22;19121;52.428;10.816;2023-02-28T02:20:02;19.20;37.40
32753;DHT22;19121;52.428;10.816;2023-02-28T02:27:49;19.10;37.40
32753;DHT22;19121;52.428;10.816;2023-02-28T02:30:24;19.20;37.50
32753;DHT22;19121;52.428;10.816;2023-02-28T02:32:58;19.10;37.40
32753;DHT22;19121;52.428;10.816;2023-02-28T02:41:05;19.20;37.40
32753;DHT22;19121;52.428;10.816;2023-02-28T02:43:39;19.10;37.40
32753;DHT22;19121;52.428;10.816;2023-02-28T02:46:07;19.10;37.40
32753;DHT22;19121;52.428;10.816;2023-02-28T02:48:35;19.20;38.00
32753;DHT22;19121;52.428;10.816;2023-02-28T02:51:04;19.10;37.40
32753;DHT22;19121;52.428;10.816;2023-02-28T02:53:38;19.10;37.40
32753;DHT22;19121;52.428;10.816;2023-02-28T02:56:05;19.20;37.40
32753;DHT22;19121;52.428;10.816;2023-02-28T02:58:34;19.10;37.40
32753;DHT22;19121;52.428;10.816;2023-02-28T03:01:01;19.10;38.00
32753;DHT22;19121;52.428;10.816;2023-02-28T03:03:27;19.10;37.40
32753;DHT22;19121;52.428;10.816;2023-02-28T03:05:57;19.10;38.00
32753;DHT22;19121;52.428;10.816;2023-02-28T03:08:23;19.10;37.30
32753;DHT22;19121;52.428;10.816;2023-02-28T03:10:49;19.10;37.30
32753;DHT22;19121;52.428;10.816;2023-02-28T03:15:50;19.10;37.30
32753;DHT22;19121;52.428;10.816;2023-02-28T03:20:56;19.10;37.30
32753;DHT22;19121;52.428;10.816;2023-02-28T03:23:37;19.10;37.30
32753;DHT22;19121;52.428;10.816;2023-02-28T03:26:04;19.10;37.30
32753;DHT22;19121;52.428;10.816;2023-02-28T03:28:41;19.20;37.40
32753;DHT22;19121;52.428;10.816;2023-02-28T03:31:12;19.20;37.40
32753;DHT22;19121;52.428;10.816;2023-02-28T03:33:45;19.20;37.40
32753;DHT22;19121;52.428;10.816;2023-02-28T03:36:21;19.20;37.40
32753;DHT22;19121;52.428;10.816;2023-02-28T03:38:54;19.20;37.40
32753;DHT22;19121;52.428;10.816;2023-02-28T03:41:32;19.20;37.40
32753;DHT22;19121;52.428;10.816;2023-02-28T03:44:00;19.30;37.40
32753;DHT22;19121;52.428;10.816;2023-02-28T03:46:28;19.20;37.30
32753;DHT22;19121;52.428;10.816;2023-02-28T03:48:58;19.20;37.30
32753;DHT22;19121;52.428;10.816;2023-02-28T03:51:26;19.20;37.30
32753;DHT22;19121;52.428;10.816;2023-02-28T03:53:53;19.20;37.30
32753;DHT22;19121;52.428;10.816;2023-02-28T03:59:02;19.20;37.30
32753;DHT22;19121;52.428;10.816;2023-02-28T04:01:40;19.20;37.30
32753;DHT22;19121;52.428;10.816;2023-02-28T04:04:07;19.20;37.30
32753;DHT22;19121;52.428;10.816;2023-02-28T04:06:33;19.30;37.30
32753;DHT22;19121;52.428;10.816;2023-02-28T04:08:58;19.30;37.20
32753;DHT22;19121;52.428;10.816;2023-02-28T04:11:38;19.20;37.20
32753;DHT22;19121;52.428;10.816;2023-02-28T04:14:04;19.30;37.20
32753;DHT22;19121;52.428;10.816;2023-02-28T04:16:30;19.30;37.20
32753;DHT22;19121;52.428;10.816;2023-02-28T04:18:56;19.30;37.10
32753;DHT22;19121;52.428;10.816;2023-02-28T04:21:28;19.30;37.10
32753;DHT22;19121;52.428;10.816;2023-02-28T04:23:53;19.30;37.10
32753;DHT22;19121;52.428;10.816;2023-02-28T04:26:18;19.20;37.10
32753;DHT22;19121;52.428;10.816;2023-02-28T04:28:44;19.20;37.10
32753;DHT22;19121;52.428;10.816;2023-02-28T04:31:09;19.30;37.00
32753;DHT22;19121;52.428;10.816;2023-02-28T04:33:35;19.20;37.00
32753;DHT22;19121;52.428;10.816;2023-02-28T04:36:03;19.30;37.00
32753;DHT22;19121;52.428;10.816;2023-02-28T04:38:30;19.30;37.00
32753;DHT22;19121;52.428;10.816;2023-02-28T04:40:57;19.30;37.00
32753;DHT22;19121;52.428;10.816;2023-02-28T04:43:23;19.30;36.90
32753;DHT22;19121;52.428;10.816;2023-02-28T04:45:49;19.30;36.90
32753;DHT22;19121;52.428;10.816;2023-02-28T04:48:14;19.30;36.90
32753;DHT22;19121;52.428;10.816;2023-02-28T04:50:40;19.30;36.90
32753;DHT22;19121;52.428;10.816;2023-02-28T04:53:05;19.30;36.80
32753;DHT22;19121;52.428;10.816;2023-02-28T04:55:30;19.30;36.80
32753;DHT22;19121;52.428;10.816;2023-02-28T04:57:56;19.30;36.80
32753;DHT22;19121;52.428;10.816;2023-02-28T05:00:21;19.30;36.80
32753;DHT22;19121;52.428;10.816;2023-02-28T05:02:47;19.30;36.80
32753;DHT22;19121;52.428;10.816;2023-02-28T05:05:12;19.20;36.70
32753;DHT22;19121;52.428;10.816;2023-02-28T05:07:43;19.20;36.70
32753;DHT22;19121;52.428;10.816;2023-02-28T05:10:09;19.30;36.70
32753;DHT22;19121;52.428;10.816;2023-02-28T05:12:35;19.30;36.70
32753;DHT22;19121;52.428;10.816;2023-02-28T05:15:00;19.20;37.30
32753;DHT22;19121;52.428;10.816;2023-02-28T05:17:27;19.30;36.70
32753;DHT22;19121;52.428;10.816;2023-02-28T05:19:53;19.20;36.70
32753;DHT22;19121;52.428;10.816;2023-02-28T05:22:18;19.20;36.60
32753;DHT22;19121;52.428;10.816;2023-02-28T05:24:43;19.20;36.60
32753;DHT22;19121;52.428;10.816;2023-02-28T05:27:09;19.20;36.70
32753;DHT22;19121;52.428;10.816;2023-02-28T05:29:35;19.30;36.60
32753;DHT22;19121;52.428;10.816;2023-02-28T05:32:12;19.20;36.60
32753;DHT22;19121;52.428;10.816;2023-02-28T05:34:38;19.20;36.60
32753;DHT22;19121;52.428;10.816;2023-02-28T05:37:04;19.30;36.60
32753;DHT22;19121;52.428;10.816;2023-02-28T05:39:30;19.20;36.50
32753;DHT22;19121;52.428;10.816;2023-02-28T05:41:55;19.30;36.60
32753;DHT22;19121;52.428;10.816;2023-02-28T05:44:21;19.20;36.50
32753;DHT22;19121;52.428;10.816;2023-02-28T05:46:46;19.20;36.50
32753;DHT22;19121;52.428;10.816;2023-02-28T05:49:11;19.20;36.50
32753;DHT22;19121;52.428;10.816;2023-02-28T05:51:37;19.20;36.50
32753;DHT22;19121;52.428;10.816;2023-02-28T05:54:05;19.20;36.60
32753;DHT22;19121;52.428;10.816;2023-02-28T05:56:31;19.20;36.50
32753;DHT22;19121;52.428;10.816;2023-02-28T05:58:56;19.20;36.50
32753;DHT22;19121;52.428;10.816;2023-02-28T06:01:23;19.20;36.50
32753;DHT22;19121;52.428;10.816;2023-02-28T06:03:49;19.20;36.50
32753;DHT22;19121;52.428;10.816;2023-02-28T06:06:15;19.20;36.50
32753;DHT22;19121;52.428;10.816;2023-02-28T06:08:40;19.20;36.50
32753;DHT22;19121;52.428;10.816;2023-02-28T06:11:08;19.20;36.50
32753;DHT22;19121;52.428;10.816;2023-02-28T06:13:34;19.20;36.50
32753;DHT22;19121;52.428;10.816;2023-02-28T06:16:02;19.20;36.50
32753;DHT22;19121;52.428;10.816;2023-02-28T06:18:28;19.20;36.40
32753;DHT22;19121;52.428;10.816;2023-02-28T06:20:53;19.20;36.40
32753;DHT22;19121;52.428;10.816;2023-02-28T06:23:20;19.20;36.40
32753;DHT22;19121;52.428;10.816;2023-02-28T06:25:45;19.20;36.40
32753;DHT22;19121;52.428;10.816;2023-02-28T06:28:11;19.20;36.40
32753;DHT22;19121;52.428;10.816;2023-02-28T06:30:37;19.20;36.40
32753;DHT22;19121;52.428;10.816;2023-02-28T06:33:02;19.20;36.40
32753;DHT22;19121;52.428;10.816;2023-02-28T06:35:28;19.20;36.40
32753;DHT22;19121;52.428;10.816;2023-02-28T06:37:53;19.20;36.40
32753;DHT22;19121;52.428;10.816;2023-02-28T06:40:19;19.20;36.40
32753;DHT22;19121;52.428;10.816;2023-02-28T06:42:44;19.20;36.30
32753;DHT22;19121;52.428;10.816;2023-02-28T06:45:10;19.20;36.30
32753;DHT22;19121;52.428;10.816;2023-02-28T06:47:36;19.20;36.30
32753;DHT22;19121;52.428;10.816;2023-02-28T06:50:02;19.20;36.30
32753;DHT22;19121;52.428;10.816;2023-02-28T06:52:27;19.20;36.20
32753;DHT22;19121;52.428;10.816;2023-02-28T06:54:53;19.20;36.40
32753;DHT22;19121;52.428;10.816;2023-02-28T06:57:26;19.20;36.50
32753;DHT22;19121;52.428;10.816;2023-02-28T06:59:52;19.20;36.60
32753;DHT22;19121;52.428;10.816;2023-02-28T07:02:17;19.30;37.20
32753;DHT22;19121;52.428;10.816;2023-02-28T07:04:43;19.30;37.60
32753;DHT22;19121;52.428;10.816;2023-02-28T07:07:10;19.40;37.90
32753;DHT22;19121;52.428;10.816;2023-02-28T07:09:36;19.50;37.90
32753;DHT22;19121;52.428;10.816;2023-02-28T07:12:01;19.60;37.90
32753;DHT22;19121;52.428;10.816;2023-02-28T07:14:27;19.70;37.90
32753;DHT22;19121;52.428;10.816;2023-02-28T07:16:52;19.70;37.80
32753;DHT22;19121;52.428;10.816;2023-02-28T07:19:17;19.80;37.80
32753;DHT22;19121;52.428;10.816;2023-02-28T07:21:43;19.90;37.80
32753;DHT22;19121;52.428;10.816;2023-02-28T07:24:08;19.90;37.60
32753;DHT22;19121;52.428;10.816;2023-02-28T07:26:34;20.00;37.70
32753;DHT22;19121;52.428;10.816;2023-02-28T07:28:59;20.10;37.50
32753;DHT22;19121;52.428;10.816;2023-02-28T07:31:24;20.20;37.50
32753;DHT22;19121;52.428;10.816;2023-02-28T07:33:50;20.30;38.10
32753;DHT22;19121;52.428;10.816;2023-02-28T07:36:16;20.40;37.40
32753;DHT22;19121;52.428;10.816;2023-02-28T07:38:44;20.40;37.10
32753;DHT22;19121;52.428;10.816;2023-02-28T07:41:10;20.50;37.20
32753;DHT22;19121;52.428;10.816;2023-02-28T07:43:35;20.60;37.80
32753;DHT22;19121;52.428;10.816;2023-02-28T07:46:02;20.70;37.70
32753;DHT22;19121;52.428;10.816;2023-02-28T07:48:27;20.70;37.50
32753;DHT22;19121;52.428;10.816;2023-02-28T07:50:56;20.80;37.40
32753;DHT22;19121;52.428;10.816;2023-02-28T07:53:22;20.90;37.70
32753;DHT22;19121;52.428;10.816;2023-02-28T07:55:47;21.00;37.60
32753;DHT22;19121;52.428;10.816;2023-02-28T07:58:13;21.00;37.30
32753;DHT22;19121;52.428;10.816;2023-02-28T08:00:38;21.10;37.10
32753;DHT22;19121;52.428;10.816;2023-02-28T08:03:03;21.10;37.10
32753;DHT22;19121;52.428;10.816;2023-02-28T08:05:29;21.20;37.00
32753;DHT22;19121;52.428;10.816;2023-02-28T08:07:55;21.20;36.70
32753;DHT22;19121;52.428;10.816;2023-02-28T08:10:20;21.20;36.70
32753;DHT22;19121;52.428;10.816;2023-02-28T08:12:46;21.20;36.50
32753;DHT22;19121;52.428;10.816;2023-02-28T08:15:11;21.30;36.50
32753;DHT22;19121;52.428;10.816;2023-02-28T08:17:37;21.30;36.40
32753;DHT22;19121;52.428;10.816;2023-02-28T08:20:02;21.30;36.30
32753;DHT22;19121;52.428;10.816;2023-02-28T08:22:29;21.40;36.20
32753;DHT22;19121;52.428;10.816;2023-02-28T08:24:54;21.40;36.10
32753;DHT22;19121;52.428;10.816;2023-02-28T08:27:20;21.40;36.10
32753;DHT22;19121;52.428;10.816;2023-02-28T08:29:45;21.40;36.00
32753;DHT22;19121;52.428;10.816;2023-02-28T08:32:11;21.40;35.90
32753;DHT22;19121;52.428;10.816;2023-02-28T08:34:38;21.40;35.70
32753;DHT22;19121;52.428;10.816;2023-02-28T08:37:03;21.40;35.40
32753;DHT22;19121;52.428;10.816;2023-02-28T08:39:29;21.50;35.20
32753;DHT22;19121;52.428;10.816;2023-02-28T08:41:54;21.50;34.80
32753;DHT22;19121;52.428;10.816;2023-02-28T08:44:19;21.50;34.60
32753;DHT22;19121;52.428;10.816;2023-02-28T08:46:45;21.50;34.40
32753;DHT22;19121;52.428;10.816;2023-02-28T08:49:10;21.50;34.30
32753;DHT22;19121;52.428;10.816;2023-02-28T08:51:36;21.50;34.10
32753;DHT22;19121;52.428;10.816;2023-02-28T08:54:01;21.60;34.10
32753;DHT22;19121;52.428;10.816;2023-02-28T08:56:27;21.60;34.00
32753;DHT22;19121;52.428;10.816;2023-02-28T08:58:54;21.60;33.80
32753;DHT22;19121;52.428;10.816;2023-02-28T09:01:24;21.60;33.90
32753;DHT22;19121;52.428;10.816;2023-02-28T09:03:50;21.70;33.80
32753;DHT22;19121;52.428;10.816;2023-02-28T09:06:16;21.70;33.70
32753;DHT22;19121;52.428;10.816;2023-02-28T09:08:42;21.70;33.70
32753;DHT22;19121;52.428;10.816;2023-02-28T09:11:08;21.70;33.70
32753;DHT22;19121;52.428;10.816;2023-02-28T09:13:33;21.70;33.60
32753;DHT22;19121;52.428;10.816;2023-02-28T09:15:59;21.80;33.60
32753;DHT22;19121;52.428;10.816;2023-02-28T09:18:26;21.80;33.60
32753;DHT22;19121;52.428;10.816;2023-02-28T09:20:51;21.80;33.50
32753;DHT22;19121;52.428;10.816;2023-02-28T09:23:17;21.80;33.50
32753;DHT22;19121;52.428;10.816;2023-02-28T09:25:48;21.80;33.70
32753;DHT22;19121;52.428;10.816;2023-02-28T09:28:14;21.90;33.40
32753;DHT22;19121;52.428;10.816;2023-02-28T09:30:41;21.90;33.40
32753;DHT22;19121;52.428;10.816;2023-02-28T09:33:06;22.00;33.40
32753;DHT22;19121;52.428;10.816;2023-02-28T09:35:32;21.90;33.40
32753;DHT22;19121;52.428;10.816;2023-02-28T09:37:57;22.00;33.70
32753;DHT22;19121;52.428;10.816;2023-02-28T09:40:24;22.00;34.00
32753;DHT22;19121;52.428;10.816;2023-02-28T09:42:51;22.00;33.80
32753;DHT22;19121;52.428;10.816;2023-02-28T09:47:46;22.10;34.10
32753;DHT22;19121;52.428;10.816;2023-02-28T09:50:17;22.10;34.10
32753;DHT22;19121;52.428;10.816;2023-02-28T09:52:43;22.10;34.10
32753;DHT22;19121;52.428;10.816;2023-02-28T09:55:28;22.10;34.10
32753;DHT22;19121;52.428;10.816;2023-02-28T09:57:54;22.10;34.00
32753;DHT22;19121;52.428;10.816;2023-02-28T10:03:03;22.10;33.80
32753;DHT22;19121;52.428;10.816;2023-02-28T10:05:37;22.10;33.60
32753;DHT22;19121;52.428;10.816;2023-02-28T10:10:42;22.10;33.70
32753;DHT22;19121;52.428;10.816;2023-02-28T10:15:56;22.10;33.80
32753;DHT22;19121;52.428;10.816;2023-02-28T10:18:27;22.10;33.90
32753;DHT22;19121;52.428;10.816;2023-02-28T10:20:54;22.10;34.00
32753;DHT22;19121;52.428;10.816;2023-02-28T10:23:28;22.10;34.00
32753;DHT22;19121;52.428;10.816;2023-02-28T10:26:00;22.00;34.00
32753;DHT22;19121;52.428;10.816;2023-02-28T10:28:26;22.00;34.10
32753;DHT22;19121;52.428;10.816;2023-02-28T10:30:53;22.00;34.20
32753;DHT22;19121;52.428;10.816;2023-02-28T10:33:24;22.00;34.30
32753;DHT22;19121;52.428;10.816;2023-02-28T10:35:50;22.00;34.30
32753;DHT22;19121;52.428;10.816;2023-02-28T10:38:20;22.00;34.30
32753;DHT22;19121;52.428;10.816;2023-02-28T10:40:46;22.00;34.30
32753;DHT22;19121;52.428;10.816;2023-02-28T10:45:40;22.00;34.40
32753;DHT22;19121;52.428;10.816;2023-02-28T10:55:40;21.90;35.10
32753;DHT22;19121;52.428;10.816;2023-02-28T10:58:25;21.90;34.50
32753;DHT22;19121;52.428;10.816;2023-02-28T11:00:51;21.90;34.40
32753;DHT22;19121;52.428;10.816;2023-02-28T11:05:48;21.90;34.50
32753;DHT22;19121;52.428;10.816;2023-02-28T11:08:15;21.90;34.50
32753;DHT22;19121;52.428;10.816;2023-02-28T11:10:44;21.90;34.50
32753;DHT22;19121;52.428;10.816;2023-02-28T11:13:16;21.80;34.50
32753;DHT22;19121;52.428;10.816;2023-02-28T11:15:42;21.90;34.60
32753;DHT22;19121;52.428;10.816;2023-02-28T11:18:21;21.80;34.60
32753;DHT22;19121;52.428;10.816;2023-02-28T11:20:48;21.80;34.70
32753;DHT22;19121;52.428;10.816;2023-02-28T11:23:14;21.80;34.70
32753;DHT22;19121;52.428;10.816;2023-02-28T11:25:41;21.80;34.70
32753;DHT22;19121;52.428;10.816;2023-02-28T11:28:25;21.80;34.70
32753;DHT22;19121;52.428;10.816;2023-02-28T11:35:51;21.80;34.70
32753;DHT22;19121;52.428;10.816;2023-02-28T11:38:17;21.80;34.80
32753;DHT22;19121;52.428;10.816;2023-02-28T11:40:47;21.80;34.70
32753;DHT22;19121;52.428;10.816;2023-02-28T11:43:32;21.80;34.90
32753;DHT22;19121;52.428;10.816;2023-02-28T11:46:05;21.80;34.80
32753;DHT22;19121;52.428;10.816;2023-02-28T11:48:39;21.80;34.80
32753;DHT22;19121;52.428;10.816;2023-02-28T11:51:13;21.80;34.70
32753;DHT22;19121;52.428;10.816;2023-02-28T11:53:47;21.80;34.70
32753;DHT22;19121;52.428;10.816;2023-02-28T11:56:24;21.80;34.80
32753;DHT22;19121;52.428;10.816;2023-02-28T12:01:35;21.80;34.80
32753;DHT22;19121;52.428;10.816;2023-02-28T12:06:33;21.80;34.90
32753;DHT22;19121;52.428;10.816;2023-02-28T12:09:09;21.80;34.90
32753;DHT22;19121;52.428;10.816;2023-02-28T12:11:40;21.80;34.80
32753;DHT22;19121;52.428;10.816;2023-02-28T12:17:12;21.80;34.80
32753;DHT22;19121;52.428;10.816;2023-02-28T12:19:33;21.80;34.80
32753;DHT22;19121;52.428;10.816;2023-02-28T12:22:20;21.80;34.90
32753;DHT22;19121;52.428;10.816;2023-02-28T12:27:13;21.80;34.90
32753;DHT22;19121;52.428;10.816;2023-02-28T12:29:46;21.80;34.90
32753;DHT22;19121;52.428;10.816;2023-02-28T12:32:15;21.80;35.00
32753;DHT22;19121;52.428;10.816;2023-02-28T12:34:49;21.80;34.80
32753;DHT22;19121;52.428;10.816;2023-02-28T12:37:27;21.80;35.30
32753;DHT22;19121;52.428;10.816;2023-02-28T12:39:56;21.80;35.30
32753;DHT22;19121;52.428;10.816;2023-02-28T12:42:29;21.80;35.70
32753;DHT22;19121;52.428;10.816;2023-02-28T12:45:03;21.80;35.50
32753;DHT22;19121;52.428;10.816;2023-02-28T12:47:29;21.80;35.50
32753;DHT22;19121;52.428;10.816;2023-02-28T12:49:58;21.80;35.40
32753;DHT22;19121;52.428;10.816;2023-02-28T12:52:29;21.80;35.40
32753;DHT22;19121;52.428;10.816;2023-02-28T12:54:59;21.80;35.30
32753;DHT22;19121;52.428;10.816;2023-02-28T12:57:33;21.80;35.40
32753;DHT22;19121;52.428;10.816;2023-02-28T13:00:04;21.80;35.30
32753;DHT22;19121;52.428;10.816;2023-02-28T13:02:42;21.80;35.10
32753;DHT22;19121;52.428;10.816;2023-02-28T13:08:00;21.80;35.20
32753;DHT22;19121;52.428;10.816;2023-02-28T13:10:45;21.70;35.10
32753;DHT22;19121;52.428;10.816;2023-02-28T13:13:13;21.70;35.10
32753;DHT22;19121;52.428;10.816;2023-02-28T13:15:39;21.60;35.30
32753;DHT22;19121;52.428;10.816;2023-02-28T13:18:25;21.60;35.40
32753;DHT22;19121;52.428;10.816;2023-02-28T13:20:52;21.60;35.40
32753;DHT22;19121;52.428;10.816;2023-02-28T13:24:04;21.50;35.50
32753;DHT22;19121;52.428;10.816;2023-02-28T13:26:03;21.50;35.50
32753;DHT22;19121;52.428;10.816;2023-02-28T13:31:13;21.40;35.70
32753;DHT22;19121;52.428;10.816;2023-02-28T13:34:04;21.40;35.70
32753;DHT22;19121;52.428;10.816;2023-02-28T13:36:31;21.40;35.80
32753;DHT22;19121;52.428;10.816;2023-02-28T13:38:57;21.40;35.80
32753;DHT22;19121;52.428;10.816;2023-02-28T13:46:34;21.30;35.70
32753;DHT22;19121;52.428;10.816;2023-02-28T13:49:45;21.30;35.70
32753;DHT22;19121;52.428;10.816;2023-02-28T13:51:47;21.30;35.70
32753;DHT22;19121;52.428;10.816;2023-02-28T13:59:22;21.20;35.70
32753;DHT22;19121;52.428;10.816;2023-02-28T14:07:04;21.10;35.70
32753;DHT22;19121;52.428;10.816;2023-02-28T14:09:31;21.10;35.90
32753;DHT22;19121;52.428;10.816;2023-02-28T14:11:57;21.10;36.10
32753;DHT22;19121;52.428;10.816;2023-02-28T14:17:12;21.10;36.10
32753;DHT22;19121;52.428;10.816;2023-02-28T14:19:39;21.10;36.10
32753;DHT22;19121;52.428;10.816;2023-02-28T14:30:13;21.00;36.70
32753;DHT22;19121;52.428;10.816;2023-02-28T14:37:53;21.10;37.00
32753;DHT22;19121;52.428;10.816;2023-02-28T14:42:57;21.10;37.10
32753;DHT22;19121;52.428;10.816;2023-02-28T14:45:23;21.10;37.10
32753;DHT22;19121;52.428;10.816;2023-02-28T14:47:49;21.10;37.40
32753;DHT22;19121;52.428;10.816;2023-02-28T14:50:18;21.00;37.30
32753;DHT22;19121;52.428;10.816;2023-02-28T14:52:44;21.00;37.40
32753;DHT22;19121;52.428;10.816;2023-02-28T14:55:12;21.00;37.50
32753;DHT22;19121;52.428;10.816;2023-02-28T14:57:40;21.00;37.30
32753;DHT22;19121;52.428;10.816;2023-02-28T15:00:14;21.00;37.10
32753;DHT22;19121;52.428;10.816;2023-02-28T15:02:40;21.10;37.20
32753;DHT22;19121;52.428;10.816;2023-02-28T15:05:19;21.00;37.30
32753;DHT22;19121;52.428;10.816;2023-02-28T15:07:45;21.00;37.70
32753;DHT22;19121;52.428;10.816;2023-02-28T15:10:21;21.10;37.60
32753;DHT22;19121;52.428;10.816;2023-02-28T15:15:16;21.00;37.40
32753;DHT22;19121;52.428;10.816;2023-02-28T15:17:44;21.00;37.40
32753;DHT22;19121;52.428;10.816;2023-02-28T15:20:11;21.00;37.40
32753;DHT22;19121;52.428;10.816;2023-02-28T15:22:37;21.00;37.40
32753;DHT22;19121;52.428;10.816;2023-02-28T15:25:03;21.00;38.10
32753;DHT22;19121;52.428;10.816;2023-02-28T15:27:31;21.00;37.70
32753;DHT22;19121;52.428;10.816;2023-02-28T15:29:58;21.00;37.50
32753;DHT22;19121;52.428;10.816;2023-02-28T15:32:26;21.00;37.50
32753;DHT22;19121;52.428;10.816;2023-02-28T15:34:52;20.90;37.50
32753;DHT22;19121;52.428;10.816;2023-02-28T15:42:40;20.90;37.60
32753;DHT22;19121;52.428;10.816;2023-02-28T15:45:26;20.90;37.40
32753;DHT22;19121;52.428;10.816;2023-02-28T15:47:51;20.90;37.40
32753;DHT22;19121;52.428;10.816;2023-02-28T15:50:17;20.90;37.30
32753;DHT22;19121;52.428;10.816;2023-02-28T15:52:44;20.80;37.50
32753;DHT22;19121;52.428;10.816;2023-02-28T15:55:11;20.80;37.60
32753;DHT22;19121;52.428;10.816;2023-02-28T15:57:38;20.80;37.70
32753;DHT22;19121;52.428;10.816;2023-02-28T16:00:04;20.90;37.80
32753;DHT22;19121;52.428;10.816;2023-02-28T16:02:34;20.80;37.70
32753;DHT22;19121;52.428;10.816;2023-02-28T16:07:31;20.80;38.70
32753;DHT22;19121;52.428;10.816;2023-02-28T16:09:57;20.80;38.70
32753;DHT22;19121;52.428;10.816;2023-02-28T16:12:25;20.80;38.70
32753;DHT22;19121;52.428;10.816;2023-02-28T16:14:51;20.80;38.60
32753;DHT22;19121;52.428;10.816;2023-02-28T16:17:21;20.80;38.00
32753;DHT22;19121;52.428;10.816;2023-02-28T16:19:47;20.80;37.80
32753;DHT22;19121;52.428;10.816;2023-02-28T16:22:12;20.80;38.00
32753;DHT22;19121;52.428;10.816;2023-02-28T16:24:38;20.80;37.90
32753;DHT22;19121;52.428;10.816;2023-02-28T16:27:04;20.80;37.80
32753;DHT22;19121;52.428;10.816;2023-02-28T16:29:31;20.80;37.80
32753;DHT22;19121;52.428;10.816;2023-02-28T16:31:57;20.80;37.70
32753;DHT22;19121;52.428;10.816;2023-02-28T16:34:23;20.80;37.50
32753;DHT22;19121;52.428;10.816;2023-02-28T16:36:49;20.70;37.40
32753;DHT22;19121;52.428;10.816;2023-02-28T16:39:15;20.70;37.90
32753;DHT22;19121;52.428;10.816;2023-02-28T16:41:44;20.70;38.00
32753;DHT22;19121;52.428;10.816;2023-02-28T16:44:13;20.70;38.00
32753;DHT22;19121;52.428;10.816;2023-02-28T16:46:43;20.60;37.80
32753;DHT22;19121;52.428;10.816;2023-02-28T16:49:10;20.60;37.90
32753;DHT22;19121;52.428;10.816;2023-02-28T16:51:36;20.60;38.10
32753;DHT22;19121;52.428;10.816;2023-02-28T16:54:01;20.60;38.20
32753;DHT22;19121;52.428;10.816;2023-02-28T16:56:27;20.60;38.30
32753;DHT22;19121;52.428;10.816;2023-02-28T16:58:52;20.50;38.40
32753;DHT22;19121;52.428;10.816;2023-02-28T17:01:19;20.50;38.40
32753;DHT22;19121;52.428;10.816;2023-02-28T17:03:47;20.50;38.10
32753;DHT22;19121;52.428;10.816;2023-02-28T17:06:16;20.50;38.10
32753;DHT22;19121;52.428;10.816;2023-02-28T17:08:42;20.50;38.10